sensor_id;sensor_type;location;lat;lon;timestamp;P1;durP1;ratioP1;P2;durP2;ratioP2
21979;SDS011;11154;48.558;9.234;2023-06-14T00:00:42;3.58;;;2.70;;
21979;SDS011;11154;48.558;9.234;2023-06-14T00:02:45;3.28;;;2.97;;
21979;SDS011;11154;48.558;9.234;2023-06-14T00:04:47;4.82;;;3.10;;
21979;SDS011;11154;48.558;9.234;2023-06-14T00:06:52;5.80;;;3.45;;
21979;SDS011;11154;48.558;9.234;2023-06-14T00:08:56;5.45;;;3.20;;
21979;SDS011;11154;48.558;9.234;2023-06-14T00:10:58;7.38;;;3.15;;
21979;SDS011;11154;48.558;9.234;2023-06-14T00:13:00;7.28;;;3.42;;
21979;SDS011;11154;48.558;9.234;2023-06-14T00:15:02;5.57;;;2.92;;
21979;SDS011;11154;48.558;9.234;2023-06-14T00:17:04;4.43;;;3.05;;
21979;SDS011;11154;48.558;9.234;2023-06-14T00:19:08;5.07;;;3.10;;
21979;SDS011;11154;48.558;9.234;2023-06-14T00:21:10;4.07;;;3.15;;
21979;SDS011;11154;48.558;9.234;2023-06-14T00:23:12;4.85;;;2.72;;
21979;SDS011;11154;48.558;9.234;2023-06-14T00:25:13;4.82;;;2.97;;
21979;SDS011;11154;48.558;9.234;2023-06-14T00:27:15;4.57;;;3.08;;
21979;SDS011;11154;48.558;9.234;2023-06-14T00:29:17;4.07;;;2.85;;
21979;SDS011;11154;48.558;9.234;2023-06-14T00:31:18;6.20;;;3.03;;
21979;SDS011;11154;48.558;9.234;2023-06-14T00:33:20;3.65;;;2.67;;
21979;SDS011;11154;48.558;9.234;2023-06-14T00:35:23;5.00;;;3.33;;
21979;SDS011;11154;48.558;9.234;2023-06-14T00:37:25;5.20;;;3.22;;
21979;SDS011;11154;48.558;9.234;2023-06-14T00:39:27;4.57;;;3.03;;
21979;SDS011;11154;48.558;9.234;2023-06-14T00:41:28;9.85;;;2.65;;
21979;SDS011;11154;48.558;9.234;2023-06-14T00:43:30;4.75;;;2.70;;
21979;SDS011;11154;48.558;9.234;2023-06-14T00:45:31;3.20;;;2.78;;
21979;SDS011;11154;48.558;9.234;2023-06-14T00:47:35;3.80;;;2.42;;
21979;SDS011;11154;48.558;9.234;2023-06-14T00:49:39;4.05;;;3.00;;
21979;SDS011;11154;48.558;9.234;2023-06-14T00:51:42;5.00;;;2.90;;
21979;SDS011;11154;48.558;9.234;2023-06-14T00:53:44;4.22;;;3.15;;
21979;SDS011;11154;48.558;9.234;2023-06-14T00:55:47;4.30;;;3.00;;
21979;SDS011;11154;48.558;9.234;2023-06-14T00:57:48;3.83;;;2.50;;
21979;SDS011;11154;48.558;9.234;2023-06-14T00:59:51;3.95;;;2.90;;
21979;SDS011;11154;48.558;9.234;2023-06-14T01:01:53;3.97;;;2.60;;
21979;SDS011;11154;48.558;9.234;2023-06-14T01:03:54;4.53;;;2.90;;
21979;SDS011;11154;48.558;9.234;2023-06-14T01:05:59;4.45;;;2.90;;
21979;SDS011;11154;48.558;9.234;2023-06-14T01:08:14;5.22;;;2.80;;
21979;SDS011;11154;48.558;9.234;2023-06-14T01:10:28;5.15;;;3.47;;
21979;SDS011;11154;48.558;9.234;2023-06-14T01:12:39;4.28;;;2.88;;
21979;SDS011;11154;48.558;9.234;2023-06-14T01:14:49;5.50;;;3.13;;
21979;SDS011;11154;48.558;9.234;2023-06-14T01:16:54;17.55;;;3.35;;
21979;SDS011;11154;48.558;9.234;2023-06-14T01:18:57;3.20;;;2.90;;
21979;SDS011;11154;48.558;9.234;2023-06-14T01:20:59;3.75;;;3.22;;
21979;SDS011;11154;48.558;9.234;2023-06-14T01:23:06;4.00;;;3.20;;
21979;SDS011;11154;48.558;9.234;2023-06-14T01:25:08;4.07;;;3.08;;
21979;SDS011;11154;48.558;9.234;2023-06-14T01:27:12;4.45;;;2.95;;
21979;SDS011;11154;48.558;9.234;2023-06-14T01:29:15;7.88;;;3.30;;
21979;SDS011;11154;48.558;9.234;2023-06-14T01:31:18;3.58;;;2.72;;
21979;SDS011;11154;48.558;9.234;2023-06-14T01:33:22;3.50;;;2.95;;
21979;SDS011;11154;48.558;9.234;2023-06-14T01:35:25;4.70;;;2.38;;
21979;SDS011;11154;48.558;9.234;2023-06-14T01:37:27;3.75;;;3.20;;
21979;SDS011;11154;48.558;9.234;2023-06-14T01:39:31;5.88;;;3.00;;
21979;SDS011;11154;48.558;9.234;2023-06-14T01:41:34;3.83;;;2.80;;
21979;SDS011;11154;48.558;9.234;2023-06-14T01:43:37;5.38;;;3.30;;
21979;SDS011;11154;48.558;9.234;2023-06-14T01:45:41;5.40;;;3.00;;
21979;SDS011;11154;48.558;9.234;2023-06-14T01:47:43;4.93;;;3.03;;
21979;SDS011;11154;48.558;9.234;2023-06-14T01:49:46;3.50;;;2.92;;
21979;SDS011;11154;48.558;9.234;2023-06-14T01:51:47;4.18;;;3.00;;
21979;SDS011;11154;48.558;9.234;2023-06-14T01:53:49;5.15;;;2.88;;
21979;SDS011;11154;48.558;9.234;2023-06-14T01:55:52;4.03;;;3.10;;
21979;SDS011;11154;48.558;9.234;2023-06-14T01:57:54;4.70;;;3.17;;
21979;SDS011;11154;48.558;9.234;2023-06-14T01:59:56;4.05;;;3.03;;
21979;SDS011;11154;48.558;9.234;2023-06-14T02:01:57;3.72;;;3.00;;
21979;SDS011;11154;48.558;9.234;2023-06-14T02:03:59;7.93;;;3.47;;
21979;SDS011;11154;48.558;9.234;2023-06-14T02:06:00;4.22;;;3.05;;
21979;SDS011;11154;48.558;9.234;2023-06-14T02:08:02;3.92;;;3.30;;
21979;SDS011;11154;48.558;9.234;2023-06-14T02:10:04;4.07;;;2.95;;
21979;SDS011;11154;48.558;9.234;2023-06-14T02:12:08;5.07;;;3.20;;
21979;SDS011;11154;48.558;9.234;2023-06-14T02:14:11;3.83;;;2.97;;
21979;SDS011;11154;48.558;9.234;2023-06-14T02:16:14;3.80;;;3.13;;
21979;SDS011;11154;48.558;9.234;2023-06-14T02:18:17;4.20;;;2.88;;
21979;SDS011;11154;48.558;9.234;2023-06-14T02:20:18;4.30;;;2.90;;
21979;SDS011;11154;48.558;9.234;2023-06-14T02:22:20;6.07;;;3.10;;
21979;SDS011;11154;48.558;9.234;2023-06-14T02:24:22;5.35;;;3.22;;
21979;SDS011;11154;48.558;9.234;2023-06-14T02:26:23;3.95;;;2.95;;
21979;SDS011;11154;48.558;9.234;2023-06-14T02:28:30;4.82;;;2.58;;
21979;SDS011;11154;48.558;9.234;2023-06-14T02:30:32;5.38;;;3.22;;
21979;SDS011;11154;48.558;9.234;2023-06-14T02:32:33;4.55;;;3.38;;
21979;SDS011;11154;48.558;9.234;2023-06-14T02:34:35;4.68;;;3.72;;
21979;SDS011;11154;48.558;9.234;2023-06-14T02:36:37;7.53;;;3.50;;
21979;SDS011;11154;48.558;9.234;2023-06-14T02:38:41;3.20;;;2.90;;
21979;SDS011;11154;48.558;9.234;2023-06-14T02:40:43;4.35;;;3.10;;
21979;SDS011;11154;48.558;9.234;2023-06-14T02:42:44;7.13;;;3.05;;
21979;SDS011;11154;48.558;9.234;2023-06-14T02:44:47;3.78;;;3.22;;
21979;SDS011;11154;48.558;9.234;2023-06-14T02:46:51;5.97;;;3.05;;
21979;SDS011;11154;48.558;9.234;2023-06-14T02:48:52;5.95;;;2.70;;
21979;SDS011;11154;48.558;9.234;2023-06-14T02:50:54;3.53;;;3.22;;
21979;SDS011;11154;48.558;9.234;2023-06-14T02:52:56;4.38;;;3.20;;
21979;SDS011;11154;48.558;9.234;2023-06-14T02:54:58;5.63;;;3.10;;
21979;SDS011;11154;48.558;9.234;2023-06-14T02:57:00;5.10;;;3.30;;
21979;SDS011;11154;48.558;9.234;2023-06-14T02:59:01;3.38;;;3.05;;
21979;SDS011;11154;48.558;9.234;2023-06-14T03:01:05;4.32;;;3.10;;
21979;SDS011;11154;48.558;9.234;2023-06-14T03:03:07;3.72;;;3.20;;
21979;SDS011;11154;48.558;9.234;2023-06-14T03:05:13;7.85;;;3.33;;
21979;SDS011;11154;48.558;9.234;2023-06-14T03:07:15;5.75;;;3.92;;
21979;SDS011;11154;48.558;9.234;2023-06-14T03:09:19;4.28;;;2.95;;
21979;SDS011;11154;48.558;9.234;2023-06-14T03:11:21;9.05;;;3.17;;
21979;SDS011;11154;48.558;9.234;2023-06-14T03:13:22;4.05;;;3.13;;
21979;SDS011;11154;48.558;9.234;2023-06-14T03:15:24;5.40;;;3.20;;
21979;SDS011;11154;48.558;9.234;2023-06-14T03:17:28;4.72;;;3.63;;
21979;SDS011;11154;48.558;9.234;2023-06-14T03:19:33;3.53;;;3.13;;
21979;SDS011;11154;48.558;9.234;2023-06-14T03:21:34;4.15;;;3.30;;
21979;SDS011;11154;48.558;9.234;2023-06-14T03:23:36;5.45;;;3.28;;
21979;SDS011;11154;48.558;9.234;2023-06-14T03:25:38;4.85;;;3.25;;
21979;SDS011;11154;48.558;9.234;2023-06-14T03:27:42;6.72;;;3.38;;
21979;SDS011;11154;48.558;9.234;2023-06-14T03:29:43;4.72;;;3.22;;
21979;SDS011;11154;48.558;9.234;2023-06-14T03:31:56;7.43;;;3.00;;
21979;SDS011;11154;48.558;9.234;2023-06-14T03:34:00;5.60;;;3.90;;
21979;SDS011;11154;48.558;9.234;2023-06-14T03:36:02;13.52;;;8.77;;
21979;SDS011;11154;48.558;9.234;2023-06-14T03:38:04;14.77;;;8.45;;
21979;SDS011;11154;48.558;9.234;2023-06-14T03:40:06;4.93;;;3.90;;
21979;SDS011;11154;48.558;9.234;2023-06-14T03:42:08;7.07;;;3.50;;
21979;SDS011;11154;48.558;9.234;2023-06-14T03:44:10;5.72;;;3.38;;
21979;SDS011;11154;48.558;9.234;2023-06-14T03:46:12;4.90;;;3.28;;
21979;SDS011;11154;48.558;9.234;2023-06-14T03:48:13;5.20;;;3.50;;
21979;SDS011;11154;48.558;9.234;2023-06-14T03:50:16;4.53;;;3.20;;
21979;SDS011;11154;48.558;9.234;2023-06-14T03:52:18;4.78;;;3.17;;
21979;SDS011;11154;48.558;9.234;2023-06-14T03:54:22;4.85;;;3.50;;
21979;SDS011;11154;48.558;9.234;2023-06-14T03:56:23;4.65;;;3.30;;
21979;SDS011;11154;48.558;9.234;2023-06-14T03:58:25;5.22;;;3.10;;
21979;SDS011;11154;48.558;9.234;2023-06-14T04:00:26;4.32;;;3.22;;
21979;SDS011;11154;48.558;9.234;2023-06-14T04:02:28;3.88;;;3.33;;
21979;SDS011;11154;48.558;9.234;2023-06-14T04:04:30;4.50;;;3.30;;
21979;SDS011;11154;48.558;9.234;2023-06-14T04:06:33;5.95;;;3.40;;
21979;SDS011;11154;48.558;9.234;2023-06-14T04:08:34;7.20;;;3.63;;
21979;SDS011;11154;48.558;9.234;2023-06-14T04:10:36;7.38;;;3.50;;
21979;SDS011;11154;48.558;9.234;2023-06-14T04:12:38;8.77;;;3.65;;
21979;SDS011;11154;48.558;9.234;2023-06-14T04:14:40;6.78;;;3.75;;
21979;SDS011;11154;48.558;9.234;2023-06-14T04:16:42;6.90;;;3.63;;
21979;SDS011;11154;48.558;9.234;2023-06-14T04:18:43;6.82;;;3.42;;
21979;SDS011;11154;48.558;9.234;2023-06-14T04:20:46;5.95;;;3.70;;
21979;SDS011;11154;48.558;9.234;2023-06-14T04:22:49;4.95;;;3.30;;
21979;SDS011;11154;48.558;9.234;2023-06-14T04:24:51;6.03;;;3.38;;
21979;SDS011;11154;48.558;9.234;2023-06-14T04:26:52;4.38;;;3.40;;
21979;SDS011;11154;48.558;9.234;2023-06-14T04:28:54;4.78;;;3.20;;
21979;SDS011;11154;48.558;9.234;2023-06-14T04:30:57;4.80;;;3.15;;
21979;SDS011;11154;48.558;9.234;2023-06-14T04:33:01;3.90;;;3.28;;
21979;SDS011;11154;48.558;9.234;2023-06-14T04:35:06;5.50;;;3.10;;
21979;SDS011;11154;48.558;9.234;2023-06-14T04:37:08;4.00;;;2.88;;
21979;SDS011;11154;48.558;9.234;2023-06-14T04:39:13;3.80;;;3.03;;
21979;SDS011;11154;48.558;9.234;2023-06-14T04:41:14;5.85;;;3.60;;
21979;SDS011;11154;48.558;9.234;2023-06-14T04:43:16;4.93;;;3.13;;
21979;SDS011;11154;48.558;9.234;2023-06-14T04:45:25;5.78;;;3.15;;
21979;SDS011;11154;48.558;9.234;2023-06-14T04:47:32;4.10;;;3.40;;
21979;SDS011;11154;48.558;9.234;2023-06-14T04:49:34;6.50;;;3.42;;
21979;SDS011;11154;48.558;9.234;2023-06-14T04:51:35;4.75;;;3.33;;
21979;SDS011;11154;48.558;9.234;2023-06-14T04:53:37;6.40;;;3.35;;
21979;SDS011;11154;48.558;9.234;2023-06-14T04:55:40;5.63;;;3.17;;
21979;SDS011;11154;48.558;9.234;2023-06-14T04:57:44;7.00;;;3.85;;
21979;SDS011;11154;48.558;9.234;2023-06-14T04:59:46;7.00;;;4.03;;
21979;SDS011;11154;48.558;9.234;2023-06-14T05:01:48;5.53;;;3.45;;
21979;SDS011;11154;48.558;9.234;2023-06-14T05:03:49;4.10;;;3.40;;
21979;SDS011;11154;48.558;9.234;2023-06-14T05:05:51;4.47;;;3.70;;
21979;SDS011;11154;48.558;9.234;2023-06-14T05:07:53;5.90;;;3.55;;
21979;SDS011;11154;48.558;9.234;2023-06-14T05:09:55;4.40;;;3.15;;
21979;SDS011;11154;48.558;9.234;2023-06-14T05:11:58;4.95;;;3.53;;
21979;SDS011;11154;48.558;9.234;2023-06-14T05:14:00;6.32;;;3.35;;
21979;SDS011;11154;48.558;9.234;2023-06-14T05:16:02;5.40;;;4.28;;
21979;SDS011;11154;48.558;9.234;2023-06-14T05:18:04;6.18;;;3.95;;
21979;SDS011;11154;48.558;9.234;2023-06-14T05:20:09;5.55;;;3.65;;
21979;SDS011;11154;48.558;9.234;2023-06-14T05:22:11;4.10;;;3.22;;
21979;SDS011;11154;48.558;9.234;2023-06-14T05:24:13;4.13;;;3.40;;
21979;SDS011;11154;48.558;9.234;2023-06-14T05:26:15;5.97;;;3.90;;
21979;SDS011;11154;48.558;9.234;2023-06-14T05:28:17;4.35;;;3.60;;
21979;SDS011;11154;48.558;9.234;2023-06-14T05:30:20;6.57;;;3.95;;
21979;SDS011;11154;48.558;9.234;2023-06-14T05:32:22;6.80;;;3.90;;
21979;SDS011;11154;48.558;9.234;2023-06-14T05:34:24;5.18;;;4.00;;
21979;SDS011;11154;48.558;9.234;2023-06-14T05:36:25;4.60;;;3.90;;
21979;SDS011;11154;48.558;9.234;2023-06-14T05:38:27;7.93;;;4.32;;
21979;SDS011;11154;48.558;9.234;2023-06-14T05:40:29;6.10;;;3.67;;
21979;SDS011;11154;48.558;9.234;2023-06-14T05:42:31;6.30;;;4.03;;
21979;SDS011;11154;48.558;9.234;2023-06-14T05:44:34;4.93;;;3.95;;
21979;SDS011;11154;48.558;9.234;2023-06-14T05:46:35;5.82;;;4.40;;
21979;SDS011;11154;48.558;9.234;2023-06-14T05:48:37;7.35;;;3.92;;
21979;SDS011;11154;48.558;9.234;2023-06-14T05:50:38;6.50;;;3.85;;
21979;SDS011;11154;48.558;9.234;2023-06-14T05:52:40;5.38;;;4.00;;
21979;SDS011;11154;48.558;9.234;2023-06-14T05:54:41;5.80;;;4.55;;
21979;SDS011;11154;48.558;9.234;2023-06-14T05:56:43;5.10;;;4.40;;
21979;SDS011;11154;48.558;9.234;2023-06-14T05:58:45;5.25;;;4.22;;
21979;SDS011;11154;48.558;9.234;2023-06-14T06:00:48;5.63;;;4.28;;
21979;SDS011;11154;48.558;9.234;2023-06-14T06:02:50;7.43;;;3.90;;
21979;SDS011;11154;48.558;9.234;2023-06-14T06:04:51;5.40;;;3.72;;
21979;SDS011;11154;48.558;9.234;2023-06-14T06:06:53;6.03;;;3.95;;
21979;SDS011;11154;48.558;9.234;2023-06-14T06:08:54;5.25;;;4.35;;
21979;SDS011;11154;48.558;9.234;2023-06-14T06:10:56;6.40;;;4.30;;
21979;SDS011;11154;48.558;9.234;2023-06-14T06:12:58;6.05;;;4.13;;
21979;SDS011;11154;48.558;9.234;2023-06-14T06:15:00;5.05;;;4.15;;
21979;SDS011;11154;48.558;9.234;2023-06-14T06:17:03;8.23;;;4.05;;
21979;SDS011;11154;48.558;9.234;2023-06-14T06:19:05;4.50;;;3.80;;
21979;SDS011;11154;48.558;9.234;2023-06-14T06:21:06;7.70;;;4.30;;
21979;SDS011;11154;48.558;9.234;2023-06-14T06:23:08;5.53;;;4.22;;
21979;SDS011;11154;48.558;9.234;2023-06-14T06:25:10;5.55;;;4.18;;
21979;SDS011;11154;48.558;9.234;2023-06-14T06:27:12;4.28;;;3.72;;
21979;SDS011;11154;48.558;9.234;2023-06-14T06:29:13;6.28;;;4.15;;
21979;SDS011;11154;48.558;9.234;2023-06-14T06:31:15;6.07;;;4.13;;
21979;SDS011;11154;48.558;9.234;2023-06-14T06:33:18;5.47;;;4.03;;
21979;SDS011;11154;48.558;9.234;2023-06-14T06:35:20;4.97;;;3.42;;
21979;SDS011;11154;48.558;9.234;2023-06-14T06:37:21;4.93;;;3.38;;
21979;SDS011;11154;48.558;9.234;2023-06-14T06:39:23;4.97;;;4.07;;
21979;SDS011;11154;48.558;9.234;2023-06-14T06:41:26;5.05;;;3.88;;
21979;SDS011;11154;48.558;9.234;2023-06-14T06:43:27;7.72;;;4.47;;
21979;SDS011;11154;48.558;9.234;2023-06-14T06:45:29;6.07;;;4.03;;
21979;SDS011;11154;48.558;9.234;2023-06-14T06:47:31;8.85;;;4.20;;
21979;SDS011;11154;48.558;9.234;2023-06-14T06:49:34;6.88;;;4.05;;
21979;SDS011;11154;48.558;9.234;2023-06-14T06:51:35;6.07;;;4.22;;
21979;SDS011;11154;48.558;9.234;2023-06-14T06:53:37;9.43;;;3.95;;
21979;SDS011;11154;48.558;9.234;2023-06-14T06:55:39;6.22;;;4.03;;
21979;SDS011;11154;48.558;9.234;2023-06-14T06:57:40;8.35;;;3.92;;
21979;SDS011;11154;48.558;9.234;2023-06-14T06:59:42;8.30;;;4.03;;
21979;SDS011;11154;48.558;9.234;2023-06-14T07:01:43;6.47;;;3.90;;
21979;SDS011;11154;48.558;9.234;2023-06-14T07:03:45;6.97;;;4.13;;
21979;SDS011;11154;48.558;9.234;2023-06-14T07:05:48;4.63;;;3.47;;
21979;SDS011;11154;48.558;9.234;2023-06-14T07:07:49;5.00;;;3.83;;
21979;SDS011;11154;48.558;9.234;2023-06-14T07:09:51;5.25;;;3.95;;
21979;SDS011;11154;48.558;9.234;2023-06-14T07:11:53;5.70;;;3.35;;
21979;SDS011;11154;48.558;9.234;2023-06-14T07:13:54;10.23;;;4.47;;
21979;SDS011;11154;48.558;9.234;2023-06-14T07:15:57;4.70;;;3.20;;
21979;SDS011;11154;48.558;9.234;2023-06-14T07:18:00;8.70;;;3.92;;
21979;SDS011;11154;48.558;9.234;2023-06-14T07:20:02;5.65;;;3.20;;
21979;SDS011;11154;48.558;9.234;2023-06-14T07:22:09;6.70;;;3.55;;
21979;SDS011;11154;48.558;9.234;2023-06-14T07:24:11;4.50;;;3.85;;
21979;SDS011;11154;48.558;9.234;2023-06-14T07:26:12;6.35;;;3.90;;
21979;SDS011;11154;48.558;9.234;2023-06-14T07:28:14;4.60;;;3.25;;
21979;SDS011;11154;48.558;9.234;2023-06-14T07:30:17;6.85;;;3.78;;
21979;SDS011;11154;48.558;9.234;2023-06-14T07:32:19;5.80;;;3.78;;
21979;SDS011;11154;48.558;9.234;2023-06-14T07:34:21;6.22;;;3.85;;
21979;SDS011;11154;48.558;9.234;2023-06-14T07:36:22;5.40;;;3.58;;
21979;SDS011;11154;48.558;9.234;2023-06-14T07:38:25;5.82;;;3.20;;
21979;SDS011;11154;48.558;9.234;2023-06-14T07:40:27;6.05;;;3.42;;
21979;SDS011;11154;48.558;9.234;2023-06-14T07:42:29;5.93;;;3.97;;
21979;SDS011;11154;48.558;9.234;2023-06-14T07:44:30;9.48;;;4.03;;
21979;SDS011;11154;48.558;9.234;2023-06-14T07:46:32;5.07;;;3.55;;
21979;SDS011;11154;48.558;9.234;2023-06-14T07:48:34;4.72;;;2.83;;
21979;SDS011;11154;48.558;9.234;2023-06-14T07:50:36;3.60;;;2.92;;
21979;SDS011;11154;48.558;9.234;2023-06-14T07:52:37;5.28;;;3.40;;
21979;SDS011;11154;48.558;9.234;2023-06-14T07:54:40;5.32;;;3.63;;
21979;SDS011;11154;48.558;9.234;2023-06-14T07:56:42;6.20;;;3.58;;
21979;SDS011;11154;48.558;9.234;2023-06-14T07:58:44;6.63;;;3.05;;
21979;SDS011;11154;48.558;9.234;2023-06-14T08:00:45;5.28;;;3.10;;
21979;SDS011;11154;48.558;9.234;2023-06-14T08:02:47;3.40;;;2.90;;
21979;SDS011;11154;48.558;9.234;2023-06-14T08:04:48;7.05;;;3.33;;
21979;SDS011;11154;48.558;9.234;2023-06-14T08:06:50;5.85;;;3.13;;
21979;SDS011;11154;48.558;9.234;2023-06-14T08:08:52;3.72;;;3.10;;
21979;SDS011;11154;48.558;9.234;2023-06-14T08:10:55;4.68;;;3.28;;
21979;SDS011;11154;48.558;9.234;2023-06-14T08:12:57;8.75;;;3.38;;
21979;SDS011;11154;48.558;9.234;2023-06-14T08:14:58;3.60;;;2.95;;
21979;SDS011;11154;48.558;9.234;2023-06-14T08:17:00;3.55;;;2.88;;
21979;SDS011;11154;48.558;9.234;2023-06-14T08:19:02;3.72;;;2.60;;
21979;SDS011;11154;48.558;9.234;2023-06-14T08:21:04;5.32;;;3.00;;
21979;SDS011;11154;48.558;9.234;2023-06-14T08:23:05;5.90;;;2.95;;
21979;SDS011;11154;48.558;9.234;2023-06-14T08:25:09;5.90;;;3.10;;
21979;SDS011;11154;48.558;9.234;2023-06-14T08:27:12;3.92;;;2.67;;
21979;SDS011;11154;48.558;9.234;2023-06-14T08:29:14;7.55;;;3.40;;
21979;SDS011;11154;48.558;9.234;2023-06-14T08:31:16;3.88;;;3.03;;
21979;SDS011;11154;48.558;9.234;2023-06-14T08:33:17;6.70;;;3.40;;
21979;SDS011;11154;48.558;9.234;2023-06-14T08:35:19;4.63;;;2.90;;
21979;SDS011;11154;48.558;9.234;2023-06-14T08:37:21;3.67;;;2.78;;
21979;SDS011;11154;48.558;9.234;2023-06-14T08:39:22;4.25;;;3.08;;
21979;SDS011;11154;48.558;9.234;2023-06-14T08:41:24;7.28;;;3.17;;
21979;SDS011;11154;48.558;9.234;2023-06-14T08:43:27;5.28;;;3.17;;
21979;SDS011;11154;48.558;9.234;2023-06-14T08:45:29;5.65;;;2.80;;
21979;SDS011;11154;48.558;9.234;2023-06-14T08:47:30;4.88;;;2.97;;
21979;SDS011;11154;48.558;9.234;2023-06-14T08:49:36;4.95;;;3.08;;
21979;SDS011;11154;48.558;9.234;2023-06-14T08:51:39;3.33;;;2.67;;
21979;SDS011;11154;48.558;9.234;2023-06-14T08:53:41;4.13;;;3.00;;
21979;SDS011;11154;48.558;9.234;2023-06-14T08:55:44;7.28;;;3.60;;
21979;SDS011;11154;48.558;9.234;2023-06-14T08:57:47;7.05;;;2.92;;
21979;SDS011;11154;48.558;9.234;2023-06-14T08:59:51;5.57;;;3.38;;
21979;SDS011;11154;48.558;9.234;2023-06-14T09:01:54;9.27;;;3.28;;
21979;SDS011;11154;48.558;9.234;2023-06-14T09:03:57;6.78;;;3.22;;
21979;SDS011;11154;48.558;9.234;2023-06-14T09:05:59;5.28;;;2.92;;
21979;SDS011;11154;48.558;9.234;2023-06-14T09:08:01;5.13;;;2.92;;
21979;SDS011;11154;48.558;9.234;2023-06-14T09:10:07;4.22;;;2.85;;
21979;SDS011;11154;48.558;9.234;2023-06-14T09:12:11;3.95;;;2.72;;
21979;SDS011;11154;48.558;9.234;2023-06-14T09:14:13;4.03;;;2.65;;
21979;SDS011;11154;48.558;9.234;2023-06-14T09:16:16;4.00;;;2.88;;
21979;SDS011;11154;48.558;9.234;2023-06-14T09:18:18;3.20;;;2.85;;
21979;SDS011;11154;48.558;9.234;2023-06-14T09:20:21;7.93;;;3.45;;
21979;SDS011;11154;48.558;9.234;2023-06-14T09:22:27;4.28;;;2.85;;
21979;SDS011;11154;48.558;9.234;2023-06-14T09:24:31;4.35;;;2.85;;
21979;SDS011;11154;48.558;9.234;2023-06-14T09:26:33;6.47;;;3.03;;
21979;SDS011;11154;48.558;9.234;2023-06-14T09:28:41;4.03;;;2.80;;
21979;SDS011;11154;48.558;9.234;2023-06-14T09:30:43;4.10;;;3.00;;
21979;SDS011;11154;48.558;9.234;2023-06-14T09:32:46;6.97;;;3.00;;
21979;SDS011;11154;48.558;9.234;2023-06-14T09:34:48;3.50;;;2.90;;
21979;SDS011;11154;48.558;9.234;2023-06-14T09:36:50;5.20;;;2.90;;
21979;SDS011;11154;48.558;9.234;2023-06-14T09:38:52;3.17;;;2.53;;
21979;SDS011;11154;48.558;9.234;2023-06-14T09:40:55;3.60;;;2.55;;
21979;SDS011;11154;48.558;9.234;2023-06-14T09:42:57;5.45;;;2.88;;
21979;SDS011;11154;48.558;9.234;2023-06-14T09:44:59;4.45;;;2.92;;
21979;SDS011;11154;48.558;9.234;2023-06-14T09:47:01;5.25;;;2.70;;
21979;SDS011;11154;48.558;9.234;2023-06-14T09:49:05;7.03;;;3.13;;
21979;SDS011;11154;48.558;9.234;2023-06-14T09:51:07;7.65;;;3.00;;
21979;SDS011;11154;48.558;9.234;2023-06-14T09:53:11;4.55;;;2.80;;
21979;SDS011;11154;48.558;9.234;2023-06-14T09:55:14;5.60;;;2.97;;
21979;SDS011;11154;48.558;9.234;2023-06-14T09:57:17;3.92;;;3.00;;
21979;SDS011;11154;48.558;9.234;2023-06-14T09:59:25;3.38;;;2.72;;
21979;SDS011;11154;48.558;9.234;2023-06-14T10:03:35;3.63;;;2.55;;
21979;SDS011;11154;48.558;9.234;2023-06-14T10:05:41;4.00;;;2.33;;
21979;SDS011;11154;48.558;9.234;2023-06-14T10:07:48;2.80;;;2.50;;
21979;SDS011;11154;48.558;9.234;2023-06-14T10:09:53;5.55;;;3.05;;
21979;SDS011;11154;48.558;9.234;2023-06-14T10:11:55;4.35;;;2.90;;
21979;SDS011;11154;48.558;9.234;2023-06-14T10:13:57;3.67;;;2.40;;
21979;SDS011;11154;48.558;9.234;2023-06-14T10:16:02;6.63;;;3.30;;
21979;SDS011;11154;48.558;9.234;2023-06-14T10:18:11;4.40;;;2.47;;
21979;SDS011;11154;48.558;9.234;2023-06-14T10:20:25;3.90;;;2.60;;
21979;SDS011;11154;48.558;9.234;2023-06-14T10:22:32;5.38;;;2.88;;
21979;SDS011;11154;48.558;9.234;2023-06-14T10:24:38;3.80;;;2.88;;
21979;SDS011;11154;48.558;9.234;2023-06-14T10:26:49;4.80;;;3.25;;
21979;SDS011;11154;48.558;9.234;2023-06-14T10:28:56;5.18;;;2.88;;
21979;SDS011;11154;48.558;9.234;2023-06-14T10:31:05;3.85;;;3.05;;
21979;SDS011;11154;48.558;9.234;2023-06-14T10:33:08;3.25;;;2.75;;
21979;SDS011;11154;48.558;9.234;2023-06-14T10:35:15;4.55;;;2.30;;
21979;SDS011;11154;48.558;9.234;2023-06-14T10:37:17;6.47;;;2.70;;
21979;SDS011;11154;48.558;9.234;2023-06-14T10:39:21;5.68;;;2.60;;
21979;SDS011;11154;48.558;9.234;2023-06-14T10:41:22;4.80;;;2.63;;
21979;SDS011;11154;48.558;9.234;2023-06-14T10:43:25;4.30;;;2.70;;
21979;SDS011;11154;48.558;9.234;2023-06-14T10:45:26;4.95;;;2.92;;
21979;SDS011;11154;48.558;9.234;2023-06-14T10:47:29;4.93;;;2.58;;
21979;SDS011;11154;48.558;9.234;2023-06-14T10:49:38;3.65;;;2.88;;
21979;SDS011;11154;48.558;9.234;2023-06-14T10:51:42;3.75;;;2.40;;
21979;SDS011;11154;48.558;9.234;2023-06-14T10:53:46;6.40;;;2.75;;
21979;SDS011;11154;48.558;9.234;2023-06-14T10:55:50;3.55;;;2.22;;
21979;SDS011;11154;48.558;9.234;2023-06-14T10:57:52;6.45;;;2.60;;
21979;SDS011;11154;48.558;9.234;2023-06-14T10:59:56;5.57;;;3.00;;
21979;SDS011;11154;48.558;9.234;2023-06-14T11:02:03;5.65;;;2.88;;
21979;SDS011;11154;48.558;9.234;2023-06-14T11:04:30;3.30;;;2.70;;
21979;SDS011;11154;48.558;9.234;2023-06-14T11:06:48;3.00;;;2.40;;
21979;SDS011;11154;48.558;9.234;2023-06-14T11:09:02;4.45;;;2.38;;
21979;SDS011;11154;48.558;9.234;2023-06-14T11:11:22;3.20;;;2.30;;
21979;SDS011;11154;48.558;9.234;2023-06-14T11:13:25;6.07;;;2.65;;
21979;SDS011;11154;48.558;9.234;2023-06-14T11:15:28;4.78;;;2.75;;
21979;SDS011;11154;48.558;9.234;2023-06-14T11:17:30;5.78;;;2.60;;
21979;SDS011;11154;48.558;9.234;2023-06-14T11:19:32;4.13;;;2.80;;
21979;SDS011;11154;48.558;9.234;2023-06-14T11:21:33;6.75;;;3.05;;
21979;SDS011;11154;48.558;9.234;2023-06-14T11:23:35;6.30;;;2.90;;
21979;SDS011;11154;48.558;9.234;2023-06-14T11:25:37;4.60;;;3.10;;
21979;SDS011;11154;48.558;9.234;2023-06-14T11:27:41;7.78;;;2.90;;
21979;SDS011;11154;48.558;9.234;2023-06-14T11:29:47;3.67;;;2.35;;
21979;SDS011;11154;48.558;9.234;2023-06-14T11:31:50;4.22;;;2.65;;
21979;SDS011;11154;48.558;9.234;2023-06-14T11:33:53;4.53;;;2.78;;
21979;SDS011;11154;48.558;9.234;2023-06-14T11:35:55;3.95;;;3.05;;
21979;SDS011;11154;48.558;9.234;2023-06-14T11:37:56;6.00;;;2.92;;
21979;SDS011;11154;48.558;9.234;2023-06-14T11:39:58;4.20;;;3.10;;
21979;SDS011;11154;48.558;9.234;2023-06-14T11:42:00;3.38;;;2.92;;
21979;SDS011;11154;48.558;9.234;2023-06-14T11:44:05;4.35;;;2.67;;
21979;SDS011;11154;48.558;9.234;2023-06-14T11:46:12;4.85;;;2.60;;
21979;SDS011;11154;48.558;9.234;2023-06-14T11:48:14;4.82;;;2.95;;
21979;SDS011;11154;48.558;9.234;2023-06-14T11:50:16;4.18;;;2.63;;
21979;SDS011;11154;48.558;9.234;2023-06-14T11:52:18;3.60;;;2.70;;
21979;SDS011;11154;48.558;9.234;2023-06-14T11:54:19;11.20;;;3.25;;
21979;SDS011;11154;48.558;9.234;2023-06-14T11:56:21;4.35;;;2.92;;
21979;SDS011;11154;48.558;9.234;2023-06-14T11:58:23;7.72;;;3.50;;
21979;SDS011;11154;48.558;9.234;2023-06-14T12:00:27;5.50;;;2.53;;
21979;SDS011;11154;48.558;9.234;2023-06-14T12:02:30;3.50;;;3.00;;
21979;SDS011;11154;48.558;9.234;2023-06-14T12:04:32;6.97;;;3.33;;
21979;SDS011;11154;48.558;9.234;2023-06-14T12:06:34;7.28;;;3.20;;
21979;SDS011;11154;48.558;9.234;2023-06-14T12:08:39;5.63;;;2.75;;
21979;SDS011;11154;48.558;9.234;2023-06-14T12:10:41;4.40;;;2.97;;
21979;SDS011;11154;48.558;9.234;2023-06-14T12:12:43;3.28;;;2.70;;
21979;SDS011;11154;48.558;9.234;2023-06-14T12:14:45;3.92;;;3.00;;
21979;SDS011;11154;48.558;9.234;2023-06-14T12:16:49;4.75;;;2.90;;
21979;SDS011;11154;48.558;9.234;2023-06-14T12:18:51;5.03;;;3.30;;
21979;SDS011;11154;48.558;9.234;2023-06-14T12:20:54;5.60;;;3.20;;
21979;SDS011;11154;48.558;9.234;2023-06-14T12:23:03;3.92;;;2.78;;